sensor_id;sensor_type;location;lat;lon;timestamp;temperature;humidity
7366;DHT22;3723;52.220;8.792;2023-08-30T00:00:24;10.30;12.80
7366;DHT22;3723;52.220;8.792;2023-08-30T00:02:51;10.30;15.80
7366;DHT22;3723;52.220;8.792;2023-08-30T00:05:18;10.20;1.00
7366;DHT22;3723;52.220;8.792;2023-08-30T00:07:51;10.20;1.00
7366;DHT22;3723;52.220;8.792;2023-08-30T00:10:31;10.10;1.00
7366;DHT22;3723;52.220;8.792;2023-08-30T00:13:00;10.10;1.00
7366;DHT22;3723;52.220;8.792;2023-08-30T00:15:27;10.20;1.00
7366;DHT22;3723;52.220;8.792;2023-08-30T00:17:55;10.30;18.80
7366;DHT22;3723;52.220;8.792;2023-08-30T00:20:37;10.40;91.10
7366;DHT22;3723;52.220;8.792;2023-08-30T00:23:11;10.60;99.90
7366;DHT22;3723;52.220;8.792;2023-08-30T00:29:27;10.80;99.90
7366;DHT22;3723;52.220;8.792;2023-08-30T00:31:54;10.90;99.90
7366;DHT22;3723;52.220;8.792;2023-08-30T00:34:21;10.90;99.90
7366;DHT22;3723;52.220;8.792;2023-08-30T00:36:48;10.90;99.90
7366;DHT22;3723;52.220;8.792;2023-08-30T00:39:15;10.90;99.90
7366;DHT22;3723;52.220;8.792;2023-08-30T00:41:41;11.00;99.90
7366;DHT22;3723;52.220;8.792;2023-08-30T00:44:09;11.00;99.90
7366;DHT22;3723;52.220;8.792;2023-08-30T00:46:37;11.10;99.90
7366;DHT22;3723;52.220;8.792;2023-08-30T00:49:04;11.10;99.90
7366;DHT22;3723;52.220;8.792;2023-08-30T00:51:32;11.10;99.90
7366;DHT22;3723;52.220;8.792;2023-08-30T00:53:59;11.10;99.90
7366;DHT22;3723;52.220;8.792;2023-08-30T00:56:27;11.00;99.90
7366;DHT22;3723;52.220;8.792;2023-08-30T00:58:55;10.90;99.90
7366;DHT22;3723;52.220;8.792;2023-08-30T01:01:22;10.90;37.50
7366;DHT22;3723;52.220;8.792;2023-08-30T01:03:50;10.80;1.00
7366;DHT22;3723;52.220;8.792;2023-08-30T01:06:17;10.70;1.00
7366;DHT22;3723;52.220;8.792;2023-08-30T01:08:44;10.70;1.00
7366;DHT22;3723;52.220;8.792;2023-08-30T01:11:16;10.70;16.80
7366;DHT22;3723;52.220;8.792;2023-08-30T01:13:49;10.70;26.20
7366;DHT22;3723;52.220;8.792;2023-08-30T01:16:17;10.70;26.70
7366;DHT22;3723;52.220;8.792;2023-08-30T01:18:46;10.70;1.00
7366;DHT22;3723;52.220;8.792;2023-08-30T01:21:23;10.70;1.00
7366;DHT22;3723;52.220;8.792;2023-08-30T01:23:58;10.70;1.00
7366;DHT22;3723;52.220;8.792;2023-08-30T01:26:33;10.70;1.00
7366;DHT22;3723;52.220;8.792;2023-08-30T01:29:05;10.80;17.80
7366;DHT22;3723;52.220;8.792;2023-08-30T01:31:34;10.80;30.10
7366;DHT22;3723;52.220;8.792;2023-08-30T01:34:02;10.90;14.00
7366;DHT22;3723;52.220;8.792;2023-08-30T01:36:31;10.90;1.00
7366;DHT22;3723;52.220;8.792;2023-08-30T01:38:58;11.00;1.00
7366;DHT22;3723;52.220;8.792;2023-08-30T01:41:27;11.00;1.00
7366;DHT22;3723;52.220;8.792;2023-08-30T01:43:56;11.10;1.00
7366;DHT22;3723;52.220;8.792;2023-08-30T01:46:26;11.20;1.00
7366;DHT22;3723;52.220;8.792;2023-08-30T01:48:54;11.20;1.00
7366;DHT22;3723;52.220;8.792;2023-08-30T01:51:22;11.20;1.00
7366;DHT22;3723;52.220;8.792;2023-08-30T01:53:51;11.30;1.00
7366;DHT22;3723;52.220;8.792;2023-08-30T01:56:19;11.30;1.00
7366;DHT22;3723;52.220;8.792;2023-08-30T01:58:46;11.20;1.00
7366;DHT22;3723;52.220;8.792;2023-08-30T02:01:13;11.30;99.90
7366;DHT22;3723;52.220;8.792;2023-08-30T02:03:43;11.30;99.90
7366;DHT22;3723;52.220;8.792;2023-08-30T02:06:14;11.30;99.90
7366;DHT22;3723;52.220;8.792;2023-08-30T02:08:49;11.30;99.90
7366;DHT22;3723;52.220;8.792;2023-08-30T02:11:22;11.40;73.10
7366;DHT22;3723;52.220;8.792;2023-08-30T02:13:50;11.40;1.00
7366;DHT22;3723;52.220;8.792;2023-08-30T02:16:19;11.40;1.00
7366;DHT22;3723;52.220;8.792;2023-08-30T02:18:48;11.50;1.00
7366;DHT22;3723;52.220;8.792;2023-08-30T02:21:16;11.50;1.00
7366;DHT22;3723;52.220;8.792;2023-08-30T02:23:43;11.50;1.00
7366;DHT22;3723;52.220;8.792;2023-08-30T02:26:10;11.50;99.90
7366;DHT22;3723;52.220;8.792;2023-08-30T02:28:37;11.50;99.90
7366;DHT22;3723;52.220;8.792;2023-08-30T02:31:07;11.50;16.90
7366;DHT22;3723;52.220;8.792;2023-08-30T02:33:34;11.50;1.00
7366;DHT22;3723;52.220;8.792;2023-08-30T02:36:04;11.50;1.00
7366;DHT22;3723;52.220;8.792;2023-08-30T02:38:36;11.50;1.00
7366;DHT22;3723;52.220;8.792;2023-08-30T02:41:03;11.60;99.90
7366;DHT22;3723;52.220;8.792;2023-08-30T02:43:32;11.60;99.90
7366;DHT22;3723;52.220;8.792;2023-08-30T02:46:16;11.60;99.90
7366;DHT22;3723;52.220;8.792;2023-08-30T02:48:43;11.70;1.00
7366;DHT22;3723;52.220;8.792;2023-08-30T02:51:14;11.60;1.00
7366;DHT22;3723;52.220;8.792;2023-08-30T02:53:41;11.60;1.00
7366;DHT22;3723;52.220;8.792;2023-08-30T02:56:11;11.60;1.00
7366;DHT22;3723;52.220;8.792;2023-08-30T02:58:38;11.60;99.90
7366;DHT22;3723;52.220;8.792;2023-08-30T03:01:06;11.60;99.90
7366;DHT22;3723;52.220;8.792;2023-08-30T03:03:33;11.50;99.90
7366;DHT22;3723;52.220;8.792;2023-08-30T03:06:01;11.50;99.90
7366;DHT22;3723;52.220;8.792;2023-08-30T03:08:29;11.50;18.70
7366;DHT22;3723;52.220;8.792;2023-08-30T03:11:06;11.40;36.50
7366;DHT22;3723;52.220;8.792;2023-08-30T03:13:33;11.40;11.80
7366;DHT22;3723;52.220;8.792;2023-08-30T03:16:00;11.40;1.00
7366;DHT22;3723;52.220;8.792;2023-08-30T03:18:27;11.40;1.00
7366;DHT22;3723;52.220;8.792;2023-08-30T03:21:00;11.30;1.00
7366;DHT22;3723;52.220;8.792;2023-08-30T03:23:29;11.30;1.00
7366;DHT22;3723;52.220;8.792;2023-08-30T03:25:57;11.30;1.00
7366;DHT22;3723;52.220;8.792;2023-08-30T03:28:24;11.30;1.00
7366;DHT22;3723;52.220;8.792;2023-08-30T03:30:50;11.30;1.00
7366;DHT22;3723;52.220;8.792;2023-08-30T03:33:17;11.40;1.00
7366;DHT22;3723;52.220;8.792;2023-08-30T03:35:44;11.30;1.00
7366;DHT22;3723;52.220;8.792;2023-08-30T03:38:11;11.40;1.00
7366;DHT22;3723;52.220;8.792;2023-08-30T03:40:39;11.40;1.00
7366;DHT22;3723;52.220;8.792;2023-08-30T03:43:08;11.40;1.00
7366;DHT22;3723;52.220;8.792;2023-08-30T03:45:36;11.40;1.00
7366;DHT22;3723;52.220;8.792;2023-08-30T03:48:04;11.40;1.00
7366;DHT22;3723;52.220;8.792;2023-08-30T03:50:31;11.30;1.00
7366;DHT22;3723;52.220;8.792;2023-08-30T03:52:58;11.30;99.90
7366;DHT22;3723;52.220;8.792;2023-08-30T03:55:25;11.20;99.90
7366;DHT22;3723;52.220;8.792;2023-08-30T03:57:53;11.10;99.90
7366;DHT22;3723;52.220;8.792;2023-08-30T04:00:20;11.10;99.90
7366;DHT22;3723;52.220;8.792;2023-08-30T04:02:47;11.00;99.90
7366;DHT22;3723;52.220;8.792;2023-08-30T04:05:15;11.00;99.90
7366;DHT22;3723;52.220;8.792;2023-08-30T04:07:42;11.00;99.90
7366;DHT22;3723;52.220;8.792;2023-08-30T04:10:09;11.00;99.90
7366;DHT22;3723;52.220;8.792;2023-08-30T04:12:35;10.90;99.90
7366;DHT22;3723;52.220;8.792;2023-08-30T04:15:05;10.80;99.90
7366;DHT22;3723;52.220;8.792;2023-08-30T04:17:32;10.80;99.90
7366;DHT22;3723;52.220;8.792;2023-08-30T04:19:58;10.80;99.90
7366;DHT22;3723;52.220;8.792;2023-08-30T04:22:25;10.70;99.90
7366;DHT22;3723;52.220;8.792;2023-08-30T04:24:57;10.70;99.90
7366;DHT22;3723;52.220;8.792;2023-08-30T04:27:29;10.60;99.90
7366;DHT22;3723;52.220;8.792;2023-08-30T04:29:57;10.50;99.90
7366;DHT22;3723;52.220;8.792;2023-08-30T04:32:26;10.50;99.90
7366;DHT22;3723;52.220;8.792;2023-08-30T04:34:53;10.40;99.90
7366;DHT22;3723;52.220;8.792;2023-08-30T04:37:20;10.30;99.90
7366;DHT22;3723;52.220;8.792;2023-08-30T04:53:27;10.50;1.00
7366;DHT22;3723;52.220;8.792;2023-08-30T04:56:22;10.40;1.00
7366;DHT22;3723;52.220;8.792;2023-08-30T04:59:19;10.50;1.00
7366;DHT22;3723;52.220;8.792;2023-08-30T05:02:05;10.60;1.00
7366;DHT22;3723;52.220;8.792;2023-08-30T05:04:33;10.60;1.00
7366;DHT22;3723;52.220;8.792;2023-08-30T05:07:02;10.70;1.00
7366;DHT22;3723;52.220;8.792;2023-08-30T05:09:45;10.70;1.00
7366;DHT22;3723;52.220;8.792;2023-08-30T05:12:19;10.70;1.00
7366;DHT22;3723;52.220;8.792;2023-08-30T05:17:49;10.70;1.00
7366;DHT22;3723;52.220;8.792;2023-08-30T05:20:29;10.80;1.00
7366;DHT22;3723;52.220;8.792;2023-08-30T05:23:09;10.90;1.00
7366;DHT22;3723;52.220;8.792;2023-08-30T05:26:36;10.90;1.00
7366;DHT22;3723;52.220;8.792;2023-08-30T05:28:59;10.90;1.00
7366;DHT22;3723;52.220;8.792;2023-08-30T05:31:32;10.90;1.00
7366;DHT22;3723;52.220;8.792;2023-08-30T05:34:00;10.90;1.00
7366;DHT22;3723;52.220;8.792;2023-08-30T05:36:32;10.90;99.90
7366;DHT22;3723;52.220;8.792;2023-08-30T05:38:59;11.00;99.90
7366;DHT22;3723;52.220;8.792;2023-08-30T05:41:31;11.10;99.90
7366;DHT22;3723;52.220;8.792;2023-08-30T05:43:58;11.30;1.00
7366;DHT22;3723;52.220;8.792;2023-08-30T05:46:25;11.60;1.00
7366;DHT22;3723;52.220;8.792;2023-08-30T05:48:53;11.70;1.00
7366;DHT22;3723;52.220;8.792;2023-08-30T05:51:21;11.80;99.90
7366;DHT22;3723;52.220;8.792;2023-08-30T05:53:48;11.90;99.90
7366;DHT22;3723;52.220;8.792;2023-08-30T05:56:15;12.00;99.90
7366;DHT22;3723;52.220;8.792;2023-08-30T05:58:44;12.00;99.90
7366;DHT22;3723;52.220;8.792;2023-08-30T06:01:11;12.10;73.80
7366;DHT22;3723;52.220;8.792;2023-08-30T06:03:39;12.10;22.90
7366;DHT22;3723;52.220;8.792;2023-08-30T06:06:07;12.10;1.00
7366;DHT22;3723;52.220;8.792;2023-08-30T06:08:34;12.20;1.00
7366;DHT22;3723;52.220;8.792;2023-08-30T06:11:01;12.30;1.00
7366;DHT22;3723;52.220;8.792;2023-08-30T06:13:28;12.40;1.00
7366;DHT22;3723;52.220;8.792;2023-08-30T06:15:56;12.50;1.00
7366;DHT22;3723;52.220;8.792;2023-08-30T06:18:23;12.60;1.00
7366;DHT22;3723;52.220;8.792;2023-08-30T06:20:51;12.70;1.00
7366;DHT22;3723;52.220;8.792;2023-08-30T06:23:18;12.80;1.00
7366;DHT22;3723;52.220;8.792;2023-08-30T06:25:53;12.90;1.00
7366;DHT22;3723;52.220;8.792;2023-08-30T06:28:20;13.00;1.00
7366;DHT22;3723;52.220;8.792;2023-08-30T06:30:47;13.30;1.00
7366;DHT22;3723;52.220;8.792;2023-08-30T06:33:15;13.50;1.00
7366;DHT22;3723;52.220;8.792;2023-08-30T06:38:36;14.00;1.00
7366;DHT22;3723;52.220;8.792;2023-08-30T06:41:03;14.30;1.00
7366;DHT22;3723;52.220;8.792;2023-08-30T06:43:30;14.50;1.00
7366;DHT22;3723;52.220;8.792;2023-08-30T06:45:58;14.80;1.00
7366;DHT22;3723;52.220;8.792;2023-08-30T06:48:27;15.10;1.00
7366;DHT22;3723;52.220;8.792;2023-08-30T06:50:57;15.40;1.00
7366;DHT22;3723;52.220;8.792;2023-08-30T06:53:24;15.60;1.00
7366;DHT22;3723;52.220;8.792;2023-08-30T06:55:57;15.90;1.00
7366;DHT22;3723;52.220;8.792;2023-08-30T06:58:25;16.10;1.00
7366;DHT22;3723;52.220;8.792;2023-08-30T07:00:58;16.20;1.00
7366;DHT22;3723;52.220;8.792;2023-08-30T07:03:27;16.20;1.00
7366;DHT22;3723;52.220;8.792;2023-08-30T07:05:53;16.30;1.00
7366;DHT22;3723;52.220;8.792;2023-08-30T07:08:21;16.50;1.00
7366;DHT22;3723;52.220;8.792;2023-08-30T07:10:47;16.60;1.00
7366;DHT22;3723;52.220;8.792;2023-08-30T07:13:15;16.80;1.00
7366;DHT22;3723;52.220;8.792;2023-08-30T07:15:42;17.00;1.00
7366;DHT22;3723;52.220;8.792;2023-08-30T07:18:09;17.20;1.00
7366;DHT22;3723;52.220;8.792;2023-08-30T07:20:38;17.40;99.90
7366;DHT22;3723;52.220;8.792;2023-08-30T07:23:05;17.60;99.90
7366;DHT22;3723;52.220;8.792;2023-08-30T07:25:32;17.90;99.90
7366;DHT22;3723;52.220;8.792;2023-08-30T07:28:01;18.20;99.90
7366;DHT22;3723;52.220;8.792;2023-08-30T07:30:28;18.40;99.90
7366;DHT22;3723;52.220;8.792;2023-08-30T07:32:56;18.70;99.90
7366;DHT22;3723;52.220;8.792;2023-08-30T07:35:23;19.00;99.90
7366;DHT22;3723;52.220;8.792;2023-08-30T07:37:59;19.30;99.90
7366;DHT22;3723;52.220;8.792;2023-08-30T07:45:52;20.40;99.90
7366;DHT22;3723;52.220;8.792;2023-08-30T07:48:20;20.40;99.90
7366;DHT22;3723;52.220;8.792;2023-08-30T07:50:47;20.80;99.90
7366;DHT22;3723;52.220;8.792;2023-08-30T08:26:03;23.50;99.90
7366;DHT22;3723;52.220;8.792;2023-08-30T08:28:31;23.60;99.90
7366;DHT22;3723;52.220;8.792;2023-08-30T08:31:02;23.70;99.90
7366;DHT22;3723;52.220;8.792;2023-08-30T08:33:36;23.70;99.90
7366;DHT22;3723;52.220;8.792;2023-08-30T08:36:28;23.70;99.90
7366;DHT22;3723;52.220;8.792;2023-08-30T08:45:38;24.10;99.90
7366;DHT22;3723;52.220;8.792;2023-08-30T08:48:07;24.30;99.90
7366;DHT22;3723;52.220;8.792;2023-08-30T08:50:34;24.30;99.90
7366;DHT22;3723;52.220;8.792;2023-08-30T08:53:07;24.40;99.90
7366;DHT22;3723;52.220;8.792;2023-08-30T08:55:49;24.50;99.90
7366;DHT22;3723;52.220;8.792;2023-08-30T08:58:27;24.60;99.90
7366;DHT22;3723;52.220;8.792;2023-08-30T09:01:06;24.90;99.90
7366;DHT22;3723;52.220;8.792;2023-08-30T09:04:09;25.00;99.90
7366;DHT22;3723;52.220;8.792;2023-08-30T09:06:52;25.10;99.90
7366;DHT22;3723;52.220;8.792;2023-08-30T09:09:22;25.10;99.90
7366;DHT22;3723;52.220;8.792;2023-08-30T09:11:53;25.10;99.90
7366;DHT22;3723;52.220;8.792;2023-08-30T09:14:25;24.90;99.90
7366;DHT22;3723;52.220;8.792;2023-08-30T09:16:59;25.00;99.90
7366;DHT22;3723;52.220;8.792;2023-08-30T09:19:28;25.00;99.90
7366;DHT22;3723;52.220;8.792;2023-08-30T09:21:57;25.20;99.90
7366;DHT22;3723;52.220;8.792;2023-08-30T09:24:24;25.60;99.90
7366;DHT22;3723;52.220;8.792;2023-08-30T09:26:53;26.00;99.90
7366;DHT22;3723;52.220;8.792;2023-08-30T09:29:24;26.20;99.90
7366;DHT22;3723;52.220;8.792;2023-08-30T09:31:52;26.60;99.90
7366;DHT22;3723;52.220;8.792;2023-08-30T09:34:23;26.70;99.90
7366;DHT22;3723;52.220;8.792;2023-08-30T09:36:57;26.60;99.90
7366;DHT22;3723;52.220;8.792;2023-08-30T09:39:49;26.40;99.90
7366;DHT22;3723;52.220;8.792;2023-08-30T09:42:40;26.40;99.90
7366;DHT22;3723;52.220;8.792;2023-08-30T09:45:17;26.50;99.90
7366;DHT22;3723;52.220;8.792;2023-08-30T09:47:47;26.80;99.90
7366;DHT22;3723;52.220;8.792;2023-08-30T09:50:20;27.10;99.90
7366;DHT22;3723;52.220;8.792;2023-08-30T09:55:58;26.80;99.90
7366;DHT22;3723;52.220;8.792;2023-08-30T09:58:28;27.00;99.90
7366;DHT22;3723;52.220;8.792;2023-08-30T10:00:59;26.90;99.90
7366;DHT22;3723;52.220;8.792;2023-08-30T10:04:08;26.50;99.90
7366;DHT22;3723;52.220;8.792;2023-08-30T10:06:58;26.50;99.90
7366;DHT22;3723;52.220;8.792;2023-08-30T10:09:28;26.40;99.90
7366;DHT22;3723;52.220;8.792;2023-08-30T10:11:58;26.40;99.90
7366;DHT22;3723;52.220;8.792;2023-08-30T10:14:31;26.10;99.90
7366;DHT22;3723;52.220;8.792;2023-08-30T10:17:01;25.70;99.90
7366;DHT22;3723;52.220;8.792;2023-08-30T10:19:30;25.70;99.90
7366;DHT22;3723;52.220;8.792;2023-08-30T10:22:01;25.90;99.90
7366;DHT22;3723;52.220;8.792;2023-08-30T10:24:33;26.10;99.90
7366;DHT22;3723;52.220;8.792;2023-08-30T10:27:15;26.60;99.90
7366;DHT22;3723;52.220;8.792;2023-08-30T10:30:13;26.80;99.90
7366;DHT22;3723;52.220;8.792;2023-08-30T10:32:41;26.80;99.90
7366;DHT22;3723;52.220;8.792;2023-08-30T10:38:24;26.80;99.90
7366;DHT22;3723;52.220;8.792;2023-08-30T10:41:30;26.80;99.90
7366;DHT22;3723;52.220;8.792;2023-08-30T10:44:07;26.50;99.90
7366;DHT22;3723;52.220;8.792;2023-08-30T10:46:43;26.40;99.90
7366;DHT22;3723;52.220;8.792;2023-08-30T10:49:18;26.70;99.90
7366;DHT22;3723;52.220;8.792;2023-08-30T10:51:54;26.90;99.90
7366;DHT22;3723;52.220;8.792;2023-08-30T10:54:37;26.90;99.90
7366;DHT22;3723;52.220;8.792;2023-08-30T10:57:04;26.80;99.90
7366;DHT22;3723;52.220;8.792;2023-08-30T10:59:31;26.40;99.90
7366;DHT22;3723;52.220;8.792;2023-08-30T11:02:06;26.40;99.90
7366;DHT22;3723;52.220;8.792;2023-08-30T11:04:39;26.90;99.90
7366;DHT22;3723;52.220;8.792;2023-08-30T11:07:08;26.80;99.90
7366;DHT22;3723;52.220;8.792;2023-08-30T11:10:02;26.20;99.90
7366;DHT22;3723;52.220;8.792;2023-08-30T11:12:43;25.30;99.90
7366;DHT22;3723;52.220;8.792;2023-08-30T11:18:45;23.70;99.90
7366;DHT22;3723;52.220;8.792;2023-08-30T11:21:18;22.90;99.90
7366;DHT22;3723;52.220;8.792;2023-08-30T11:23:46;22.50;99.90
7366;DHT22;3723;52.220;8.792;2023-08-30T11:26:15;22.10;99.90
7366;DHT22;3723;52.220;8.792;2023-08-30T11:31:51;21.40;99.90
7366;DHT22;3723;52.220;8.792;2023-08-30T11:34:44;21.20;99.90
7366;DHT22;3723;52.220;8.792;2023-08-30T11:37:51;21.00;99.90
7366;DHT22;3723;52.220;8.792;2023-08-30T11:40:25;20.80;99.90
7366;DHT22;3723;52.220;8.792;2023-08-30T11:50:42;21.10;99.90
7366;DHT22;3723;52.220;8.792;2023-08-30T11:53:24;21.50;99.90
7366;DHT22;3723;52.220;8.792;2023-08-30T12:07:36;22.50;99.90
7366;DHT22;3723;52.220;8.792;2023-08-30T12:10:27;22.70;99.90
7366;DHT22;3723;52.220;8.792;2023-08-30T12:12:55;22.80;99.90
7366;DHT22;3723;52.220;8.792;2023-08-30T12:15:33;22.90;99.90
7366;DHT22;3723;52.220;8.792;2023-08-30T12:18:06;22.90;99.90
7366;DHT22;3723;52.220;8.792;2023-08-30T12:21:02;23.00;99.90
7366;DHT22;3723;52.220;8.792;2023-08-30T12:23:40;23.20;99.90
7366;DHT22;3723;52.220;8.792;2023-08-30T12:26:34;23.30;99.90
7366;DHT22;3723;52.220;8.792;2023-08-30T12:29:48;23.20;99.90
7366;DHT22;3723;52.220;8.792;2023-08-30T12:32:27;23.30;99.90
7366;DHT22;3723;52.220;8.792;2023-08-30T12:35:11;23.30;99.90
7366;DHT22;3723;52.220;8.792;2023-08-30T12:37:38;23.20;99.90
7366;DHT22;3723;52.220;8.792;2023-08-30T12:40:18;23.00;99.90
7366;DHT22;3723;52.220;8.792;2023-08-30T12:43:10;23.10;99.90
7366;DHT22;3723;52.220;8.792;2023-08-30T12:45:41;23.10;99.90
7366;DHT22;3723;52.220;8.792;2023-08-30T12:48:24;23.00;99.90
7366;DHT22;3723;52.220;8.792;2023-08-30T12:50:52;23.00;99.90
7366;DHT22;3723;52.220;8.792;2023-08-30T12:53:19;23.00;99.90
7366;DHT22;3723;52.220;8.792;2023-08-30T12:56:39;22.80;99.90
7366;DHT22;3723;52.220;8.792;2023-08-30T12:59:34;22.50;99.90
7366;DHT22;3723;52.220;8.792;2023-08-30T13:02:02;22.10;99.90
7366;DHT22;3723;52.220;8.792;2023-08-30T13:04:31;22.00;99.90
7366;DHT22;3723;52.220;8.792;2023-08-30T13:07:00;21.90;99.90
7366;DHT22;3723;52.220;8.792;2023-08-30T13:09:50;21.80;99.90
7366;DHT22;3723;52.220;8.792;2023-08-30T13:12:22;21.60;99.90
7366;DHT22;3723;52.220;8.792;2023-08-30T13:14:53;21.30;99.90
7366;DHT22;3723;52.220;8.792;2023-08-30T13:20:14;21.10;99.90
7366;DHT22;3723;52.220;8.792;2023-08-30T13:22:49;21.10;99.90
7366;DHT22;3723;52.220;8.792;2023-08-30T13:25:16;21.00;99.90
7366;DHT22;3723;52.220;8.792;2023-08-30T13:27:46;21.00;99.90
7366;DHT22;3723;52.220;8.792;2023-08-30T13:30:32;20.90;99.90
7366;DHT22;3723;52.220;8.792;2023-08-30T13:33:18;20.80;99.90
7366;DHT22;3723;52.220;8.792;2023-08-30T13:35:49;20.60;99.90
7366;DHT22;3723;52.220;8.792;2023-08-30T13:38:20;20.30;99.90
7366;DHT22;3723;52.220;8.792;2023-08-30T13:40:58;20.10;99.90
7366;DHT22;3723;52.220;8.792;2023-08-30T13:43:33;19.90;99.90
7366;DHT22;3723;52.220;8.792;2023-08-30T13:48:53;19.40;99.90
7366;DHT22;3723;52.220;8.792;2023-08-30T13:51:28;18.90;99.90
7366;DHT22;3723;52.220;8.792;2023-08-30T13:54:02;18.60;99.90
7366;DHT22;3723;52.220;8.792;2023-08-30T14:00:19;17.80;99.90
7366;DHT22;3723;52.220;8.792;2023-08-30T14:03:13;17.50;99.90
7366;DHT22;3723;52.220;8.792;2023-08-30T14:09:39;17.20;99.90
7366;DHT22;3723;52.220;8.792;2023-08-30T14:12:12;17.10;99.90
7366;DHT22;3723;52.220;8.792;2023-08-30T14:18:22;16.90;99.90
7366;DHT22;3723;52.220;8.792;2023-08-30T14:24:26;16.40;99.90
7366;DHT22;3723;52.220;8.792;2023-08-30T14:27:03;16.10;99.90
7366;DHT22;3723;52.220;8.792;2023-08-30T14:29:30;15.90;99.90
7366;DHT22;3723;52.220;8.792;2023-08-30T14:31:57;15.60;99.90
7366;DHT22;3723;52.220;8.792;2023-08-30T14:34:31;15.50;99.90
7366;DHT22;3723;52.220;8.792;2023-08-30T14:37:01;15.40;99.90
7366;DHT22;3723;52.220;8.792;2023-08-30T14:42:34;15.10;99.90
7366;DHT22;3723;52.220;8.792;2023-08-30T14:45:36;15.10;1.00
7366;DHT22;3723;52.220;8.792;2023-08-30T14:48:29;15.00;1.00
7366;DHT22;3723;52.220;8.792;2023-08-30T14:54:23;15.10;1.00
7366;DHT22;3723;52.220;8.792;2023-08-30T14:56:57;15.10;1.00
7366;DHT22;3723;52.220;8.792;2023-08-30T15:00:16;15.00;1.00
7366;DHT22;3723;52.220;8.792;2023-08-30T15:07:21;14.90;6.10
7366;DHT22;3723;52.220;8.792;2023-08-30T15:10:09;14.80;39.60
7366;DHT22;3723;52.220;8.792;2023-08-30T18:02:05;13.80;1.00
7366;DHT22;3723;52.220;8.792;2023-08-30T18:05:15;13.80;1.00
7366;DHT22;3723;52.220;8.792;2023-08-30T18:07:53;13.70;1.00
7366;DHT22;3723;52.220;8.792;2023-08-30T18:20:31;13.60;1.00
7366;DHT22;3723;52.220;8.792;2023-08-30T18:27:20;13.50;1.00
7366;DHT22;3723;52.220;8.792;2023-08-30T19:02:10;13.00;43.00
7366;DHT22;3723;52.220;8.792;2023-08-30T19:04:46;13.10;51.30
7366;DHT22;3723;52.220;8.792;2023-08-30T19:07:23;13.10;87.60
7366;DHT22;3723;52.220;8.792;2023-08-30T19:10:24;13.10;48.00
7366;DHT22;3723;52.220;8.792;2023-08-30T19:16:11;13.10;1.00
7366;DHT22;3723;52.220;8.792;2023-08-30T19:18:56;13.20;1.00
7366;DHT22;3723;52.220;8.792;2023-08-30T19:21:32;13.10;1.00
7366;DHT22;3723;52.220;8.792;2023-08-30T19:31:22;13.20;2.90
7366;DHT22;3723;52.220;8.792;2023-08-30T19:34:10;13.20;1.00
7366;DHT22;3723;52.220;8.792;2023-08-30T20:50:03;12.70;99.90
7366;DHT22;3723;52.220;8.792;2023-08-30T20:52:53;12.70;99.90
7366;DHT22;3723;52.220;8.792;2023-08-30T20:55:54;12.70;99.90
7366;DHT22;3723;52.220;8.792;2023-08-30T20:58:24;12.70;99.90
7366;DHT22;3723;52.220;8.792;2023-08-30T21:01:23;12.70;99.90
7366;DHT22;3723;52.220;8.792;2023-08-30T21:08:05;12.70;1.00
7366;DHT22;3723;52.220;8.792;2023-08-30T21:11:06;12.70;1.00
7366;DHT22;3723;52.220;8.792;2023-08-30T21:17:19;12.50;1.00
7366;DHT22;3723;52.220;8.792;2023-08-30T21:19:50;12.50;1.00
7366;DHT22;3723;52.220;8.792;2023-08-30T21:22:45;12.50;1.00
7366;DHT22;3723;52.220;8.792;2023-08-30T21:25:15;12.40;1.00
7366;DHT22;3723;52.220;8.792;2023-08-30T21:28:01;12.40;1.00
7366;DHT22;3723;52.220;8.792;2023-08-30T21:38:26;12.20;1.00
7366;DHT22;3723;52.220;8.792;2023-08-30T21:45:03;11.90;1.00
7366;DHT22;3723;52.220;8.792;2023-08-30T21:47:55;11.80;1.00
7366;DHT22;3723;52.220;8.792;2023-08-30T21:51:03;11.70;1.00
7366;DHT22;3723;52.220;8.792;2023-08-30T22:04:32;11.40;1.00
7366;DHT22;3723;52.220;8.792;2023-08-30T22:14:28;11.40;91.90
7366;DHT22;3723;52.220;8.792;2023-08-30T22:20:24;11.30;99.90
7366;DHT22;3723;52.220;8.792;2023-08-30T22:33:16;11.20;99.90
7366;DHT22;3723;52.220;8.792;2023-08-30T22:48:19;11.20;99.90
7366;DHT22;3723;52.220;8.792;2023-08-30T22:50:51;11.00;99.90
7366;DHT22;3723;52.220;8.792;2023-08-30T22:54:00;11.00;99.90
7366;DHT22;3723;52.220;8.792;2023-08-30T23:00:34;10.90;99.90
7366;DHT22;3723;52.220;8.792;2023-08-30T23:07:01;10.80;99.90
7366;DHT22;3723;52.220;8.792;2023-08-30T23:13:37;10.70;99.90
7366;DHT22;3723;52.220;8.792;2023-08-30T23:16:36;10.70;99.90
7366;DHT22;3723;52.220;8.792;2023-08-30T23:19:06;10.70;1.00
7366;DHT22;3723;52.220;8.792;2023-08-30T23:25:01;10.70;1.00
7366;DHT22;3723;52.220;8.792;2023-08-30T23:31:03;10.60;1.00
7366;DHT22;3723;52.220;8.792;2023-08-30T23:34:00;10.60;1.00
7366;DHT22;3723;52.220;8.792;2023-08-30T23:36:45;10.60;1.00
7366;DHT22;3723;52.220;8.792;2023-08-30T23:39:14;10.50;1.00
7366;DHT22;3723;52.220;8.792;2023-08-30T23:41:45;10.60;1.00
7366;DHT22;3723;52.220;8.792;2023-08-30T23:44:36;10.50;7.20
7366;DHT22;3723;52.220;8.792;2023-08-30T23:47:20;10.50;1.00
7366;DHT22;3723;52.220;8.792;2023-08-30T23:50:27;10.50;1.00
7366;DHT22;3723;52.220;8.792;2023-08-30T23:53:09;10.50;1.00
7366;DHT22;3723;52.220;8.792;2023-08-30T23:59:37;10.30;14.70
